Time;durP1;ratioP1;P1;durP2;ratioP2;P2;SDS_P1;SDS_P2;PMS_P1;PMS_P2;Temp;Humidity;BMP_temperature;BMP_pressure;BME280_temperature;BME280_humidity;BME280_pressure;Samples;Min_cycle;Max_cycle;Signal;HPM_P1;HPM_P2
2021/11/04 00:01:04;;;;;;;17.65;15.73;;;;;;;28.23;22.59;94470.88;5036367;28;20046;-57
2021/11/04 00:03:32;;;;;;;18.55;16.58;;;;;;;28.31;22.89;94476.22;5036636;28;20041;-55
2021/11/04 00:06:00;;;;;;;17.38;15.52;;;;;;;28.35;23.41;94476.94;5036739;28;20317;-65
2021/11/04 00:08:27;;;;;;;17.30;15.20;;;;;;;28.00;23.22;94473.34;5035443;28;20049;-54
2021/11/04 00:10:54;;;;;;;16.92;15.23;;;;;;;27.81;23.45;94471.94;5035975;28;20459;-56
2021/11/04 00:13:23;;;;;;;16.95;15.30;;;;;;;27.72;23.44;94468.16;5036376;28;20352;-55
2021/11/04 00:15:50;;;;;;;17.42;15.73;;;;;;;27.93;23.62;94457.28;5019006;28;20461;-54
2021/11/04 00:18:18;;;;;;;17.02;15.32;;;;;;;27.76;23.14;94461.59;5015868;28;20049;-56
2021/11/04 00:20:45;;;;;;;18.05;15.43;;;;;;;27.85;23.19;94463.88;5033092;28;20440;-54
2021/11/04 00:23:12;;;;;;;17.23;15.43;;;;;;;27.80;23.37;94456.22;5033105;28;20061;-54
2021/11/04 00:25:39;;;;;;;18.25;16.45;;;;;;;27.71;23.15;94455.91;5016412;28;20516;-56
2021/11/04 00:28:06;;;;;;;17.48;15.60;;;;;;;27.79;22.97;94452.75;5016027;28;20052;-56
2021/11/04 00:30:34;;;;;;;16.48;14.88;;;;;;;27.62;23.37;94450.97;5033569;28;20645;-55
2021/11/04 00:33:01;;;;;;;17.63;15.75;;;;;;;27.81;23.34;94449.69;5035895;28;20363;-54
2021/11/04 00:35:28;;;;;;;17.08;15.48;;;;;;;28.01;23.07;94469.50;5035945;28;20045;-55
2021/11/04 00:37:56;;;;;;;17.15;15.35;;;;;;;27.90;23.38;94484.94;5034860;28;20453;-54
2021/11/04 00:40:23;;;;;;;16.30;14.60;;;;;;;27.81;23.55;94479.22;5035344;28;20034;-56
2021/11/04 00:42:51;;;;;;;17.27;15.57;;;;;;;27.90;23.28;94495.69;5035524;28;20052;-68
2021/11/04 00:45:18;;;;;;;17.55;15.70;;;;;;;27.59;23.16;94492.75;5035803;28;20053;-61
2021/11/04 00:47:45;;;;;;;16.45;14.70;;;;;;;28.39;22.41;94496.53;5030282;28;20365;-65
2021/11/04 00:50:13;;;;;;;16.42;14.75;;;;;;;27.84;23.23;94497.25;5029946;28;20049;-55
2021/11/04 00:52:40;;;;;;;17.60;15.88;;;;;;;27.56;23.56;94501.56;5022723;28;20050;-68
2021/11/04 00:55:08;;;;;;;16.05;14.45;;;;;;;28.40;22.91;94495.38;5015709;28;20045;-55
2021/11/04 00:57:36;;;;;;;15.77;14.23;;;;;;;27.63;23.57;94482.78;5015771;28;20057;-55
2021/11/04 01:00:06;;;;;;;16.98;15.27;;;;;;;27.69;23.24;94485.06;5028207;28;20045;-54
2021/11/04 01:02:35;;;;;;;15.85;14.25;;;;;;;27.87;23.22;94485.72;5035220;28;20049;-54
2021/11/04 01:05:02;;;;;;;15.80;14.30;;;;;;;28.02;23.33;94481.00;5023202;28;20056;-57
2021/11/04 01:07:29;;;;;;;15.63;14.02;;;;;;;27.94;24.02;94464.19;5033463;28;20057;-56
2021/11/04 01:09:56;;;;;;;14.70;13.20;;;;;;;27.95;24.04;94471.09;5034585;28;20076;-66
2021/11/04 01:12:23;;;;;;;14.57;13.07;;;;;;;28.09;23.84;94472.91;5035212;28;20049;-64
2021/11/04 01:14:51;;;;;;;14.82;13.32;;;;;;;27.95;23.74;94468.41;5035205;28;20364;-67
2021/11/04 01:17:18;;;;;;;14.10;12.70;;;;;;;27.89;23.37;94467.28;5034800;28;20364;-66
2021/11/04 01:19:45;;;;;;;15.50;13.80;;;;;;;27.85;23.49;94461.19;5034425;28;20052;-54
2021/11/04 01:22:12;;;;;;;17.20;13.75;;;;;;;27.80;23.66;94450.84;5035083;28;20428;-66
2021/11/04 01:24:39;;;;;;;14.50;13.00;;;;;;;27.86;23.43;94441.22;5022220;28;20404;-55
2021/11/04 01:27:06;;;;;;;14.35;12.95;;;;;;;27.84;23.47;94438.16;5014875;28;20061;-54
2021/11/04 01:29:33;;;;;;;15.32;13.82;;;;;;;27.79;23.45;94449.31;5021823;28;20045;-64
2021/11/04 01:32:00;;;;;;;15.27;13.68;;;;;;;28.09;23.06;94436.03;5034745;28;20052;-63
2021/11/04 01:34:27;;;;;;;15.10;13.50;;;;;;;28.09;23.31;94444.09;5034927;28;20041;-53
2021/11/04 01:36:54;;;;;;;14.18;12.77;;;;;;;27.74;24.14;94447.81;5033836;28;20051;-55
2021/11/04 01:39:22;;;;;;;15.07;12.90;;;;;;;27.62;24.47;94445.59;5034068;28;20061;-54
2021/11/04 01:41:51;;;;;;;14.82;13.13;;;;;;;27.80;24.23;94437.41;5034690;28;20048;-55
2021/11/04 01:44:18;;;;;;;17.45;15.75;;;;;;;28.36;22.97;94448.91;5033479;28;20049;-55
2021/11/04 01:46:45;;;;;;;17.70;15.90;;;;;;;27.80;23.34;94437.41;5014250;28;20046;-57
2021/11/04 01:49:12;;;;;;;15.90;14.20;;;;;;;28.23;23.19;94446.69;5017981;28;20045;-54
2021/11/04 01:51:39;;;;;;;16.23;14.52;;;;;;;28.52;22.86;94441.09;5034111;28;20060;-67
2021/11/04 01:54:06;;;;;;;16.00;14.50;;;;;;;28.38;22.77;94449.31;5035225;28;20059;-55
2021/11/04 01:56:37;;;;;;;16.83;15.05;;;;;;;28.17;23.20;94440.22;5034235;28;20403;-56
2021/11/04 01:59:05;;;;;;;17.05;15.27;;;;;;;27.95;23.41;94454.97;5034072;28;20053;-54
2021/11/04 02:01:34;;;;;;;15.85;13.93;;;;;;;27.93;23.71;94435.78;5033938;28;20045;-55
2021/11/04 02:04:33;;;;;;;17.75;16.05;;;;;;;27.83;23.91;94458.88;5034273;28;20052;-56
2021/11/04 02:07:13;;;;;;;17.20;15.50;;;;;;;28.08;23.45;94461.38;5032448;28;20053;-63
2021/11/04 02:09:51;;;;;;;17.55;15.80;;;;;;;28.13;23.36;94465.59;5032504;28;20459;-63
2021/11/04 02:12:39;;;;;;;17.80;16.02;;;;;;;28.24;22.98;94450.94;5032439;28;20057;-65
2021/11/04 02:15:07;;;;;;;17.40;15.68;;;;;;;27.71;23.59;94453.97;5032969;28;20059;-58
2021/11/04 02:17:34;;;;;;;16.10;14.60;;;;;;;27.92;23.38;94458.44;5032888;28;20444;-62
2021/11/04 02:20:03;;;;;;;16.95;15.23;;;;;;;27.92;23.62;94453.06;5032448;28;20045;-65
2021/11/04 02:22:36;;;;;;;17.77;16.08;;;;;;;27.91;23.29;94460.38;5033891;28;20052;-66
2021/11/04 02:25:08;;;;;;;18.15;16.25;;;;;;;27.22;23.67;94463.78;5029560;28;20464;-55
2021/11/04 02:27:36;;;;;;;18.52;16.55;;;;;;;27.54;23.62;94462.84;5013191;28;20049;-63
2021/11/04 02:30:04;;;;;;;17.30;15.57;;;;;;;27.52;23.71;94471.31;5023945;28;20049;-53
2021/11/04 02:32:32;;;;;;;17.10;15.50;;;;;;;27.52;23.83;94476.66;5033642;28;20127;-54
2021/11/04 02:35:00;;;;;;;16.83;15.20;;;;;;;27.83;23.08;94480.34;5032813;28;20053;-65
2021/11/04 02:37:32;;;;;;;17.33;15.73;;;;;;;27.40;23.27;94479.81;5032081;28;20069;-63
2021/11/04 02:40:00;;;;;;;16.63;15.00;;;;;;;27.55;23.60;94475.88;5033704;28;20056;-54
2021/11/04 02:42:27;;;;;;;16.40;14.80;;;;;;;27.37;23.66;94490.56;5036885;28;20045;-56
2021/11/04 02:44:55;;;;;;;18.35;15.18;;;;;;;27.49;23.54;94501.63;5037561;28;20448;-54
2021/11/04 02:47:22;;;;;;;16.65;15.05;;;;;;;27.42;23.65;94500.88;5036757;28;20060;-65
2021/11/04 02:49:52;;;;;;;17.10;15.43;;;;;;;27.53;23.74;94505.03;5036423;28;20045;-64
2021/11/04 02:52:19;;;;;;;16.27;14.68;;;;;;;27.70;23.48;94500.03;5037936;28;20053;-60
2021/11/04 02:54:56;;;;;;;16.77;15.18;;;;;;;27.60;23.54;94505.03;5037297;28;20432;-62
2021/11/04 02:57:23;;;;;;;15.90;14.30;;;;;;;27.65;23.43;94517.31;5037582;28;20432;-65
2021/11/04 02:59:50;;;;;;;15.93;14.38;;;;;;;27.51;23.82;94507.34;5036444;28;20053;-62
2021/11/04 03:02:18;;;;;;;15.48;13.93;;;;;;;27.32;23.87;94518.53;5037589;28;20056;-65
2021/11/04 03:04:45;;;;;;;15.18;13.57;;;;;;;27.60;23.81;94525.75;5037414;28;20049;-63
2021/11/04 03:07:13;;;;;;;15.02;13.57;;;;;;;27.58;23.78;94515.38;5036679;28;20064;-65
2021/11/04 03:09:40;;;;;;;15.90;14.40;;;;;;;27.46;23.72;94526.56;5037074;28;20054;-66
2021/11/04 03:12:08;;;;;;;15.30;13.80;;;;;;;27.64;23.86;94521.16;5037493;28;20041;-64
2021/11/04 03:14:35;;;;;;;14.90;13.50;;;;;;;27.72;23.35;94528.00;5037082;28;20045;-60
2021/11/04 03:17:04;;;;;;;15.85;14.27;;;;;;;27.41;24.07;94520.84;5037078;28;20076;-60
2021/11/04 03:19:31;;;;;;;15.43;13.93;;;;;;;27.36;24.10;94532.75;5037659;28;20053;-64
2021/11/04 03:21:59;;;;;;;16.00;14.50;;;;;;;27.24;24.41;94536.59;5036035;28;20041;-61
2021/11/04 03:24:27;;;;;;;16.77;15.18;;;;;;;27.44;24.07;94530.78;5036185;28;20045;-65
2021/11/04 03:27:05;;;;;;;16.55;14.95;;;;;;;27.45;24.28;94535.00;5036607;28;20041;-54
2021/11/04 03:29:36;;;;;;;18.10;16.27;;;;;;;27.49;24.13;94520.41;5037025;28;20266;-60
2021/11/04 03:32:05;;;;;;;17.73;15.82;;;;;;;27.72;23.48;94521.88;5036813;28;20054;-54
2021/11/04 03:34:34;;;;;;;17.88;16.13;;;;;;;27.41;24.15;94510.88;5035842;28;20061;-56
2021/11/04 03:37:03;;;;;;;18.95;17.00;;;;;;;27.47;23.92;94516.59;5034878;28;20447;-55
2021/11/04 03:39:31;;;;;;;19.00;17.00;;;;;;;27.53;24.35;94526.53;5036243;28;20045;-65
2021/11/04 03:41:58;;;;;;;19.63;17.52;;;;;;;27.71;23.76;94523.03;5035623;28;20037;-65
2021/11/04 03:44:26;;;;;;;18.15;16.35;;;;;;;27.31;24.13;94512.41;5036004;28;20046;-66
2021/11/04 03:46:54;;;;;;;19.40;17.30;;;;;;;27.54;24.16;94517.31;5035306;28;20045;-67
2021/11/04 03:49:22;;;;;;;19.77;17.67;;;;;;;27.51;24.07;94518.09;5035472;28;20056;-59
2021/11/04 03:51:51;;;;;;;18.60;16.67;;;;;;;27.52;24.09;94516.94;5034729;28;20053;-58
2021/11/04 03:54:22;;;;;;;19.25;17.38;;;;;;;27.48;24.11;94518.88;5036981;28;20072;-63
2021/11/04 03:56:49;;;;;;;16.73;15.13;;;;;;;27.34;23.89;94508.22;5035261;28;20049;-65
2021/11/04 03:59:17;;;;;;;17.75;16.05;;;;;;;27.59;23.83;94508.09;5036649;28;20048;-66
2021/11/04 04:01:44;;;;;;;17.17;15.40;;;;;;;27.33;23.92;94509.38;5034822;28;20056;-67
2021/11/04 04:04:11;;;;;;;16.73;15.05;;;;;;;27.27;23.98;94518.97;5022265;28;20058;-53
2021/11/04 04:06:39;;;;;;;16.50;15.00;;;;;;;27.55;23.74;94516.16;5030262;28;20057;-55
2021/11/04 04:09:09;;;;;;;15.75;14.25;;;;;;;27.38;23.86;94513.56;5018712;28;20072;-54
2021/11/04 04:11:36;;;;;;;15.77;14.27;;;;;;;27.35;23.40;94509.75;5035523;28;20054;-55
2021/11/04 04:14:03;;;;;;;15.63;14.02;;;;;;;27.35;23.29;94523.16;5036395;28;20053;-54
2021/11/04 04:16:30;;;;;;;14.88;13.48;;;;;;;27.31;23.05;94520.47;5036042;28;20050;-55
2021/11/04 04:18:57;;;;;;;15.88;14.38;;;;;;;27.39;23.37;94515.09;5035844;28;20387;-65
2021/11/04 04:21:24;;;;;;;14.85;13.35;;;;;;;27.63;23.40;94515.00;5035153;28;20041;-65
2021/11/04 04:23:51;;;;;;;17.75;13.90;;;;;;;27.46;23.31;94510.44;5018186;28;20441;-54
2021/11/04 04:26:18;;;;;;;14.23;12.82;;;;;;;27.41;22.93;94510.88;5027372;28;20052;-65
2021/11/04 04:28:46;;;;;;;14.27;12.85;;;;;;;27.71;23.24;94521.09;5035549;28;20080;-56
2021/11/04 04:31:13;;;;;;;13.57;12.27;;;;;;;27.50;23.26;94511.19;5036185;28;20053;-55
2021/11/04 04:33:40;;;;;;;14.63;13.23;;;;;;;27.47;23.46;94520.03;5035336;28;20049;-56
2021/11/04 04:36:08;;;;;;;15.43;13.90;;;;;;;27.60;23.30;94520.38;5035342;28;20041;-55
2021/11/04 04:38:35;;;;;;;13.68;12.48;;;;;;;27.66;23.45;94520.75;5034776;28;20053;-55
2021/11/04 04:41:02;;;;;;;13.75;12.45;;;;;;;27.27;23.57;94519.72;5036046;28;20052;-55
2021/11/04 04:43:29;;;;;;;14.38;12.98;;;;;;;27.57;23.26;94521.13;5035883;28;20053;-54
2021/11/04 04:45:56;;;;;;;14.00;12.60;;;;;;;27.63;23.36;94525.75;5035217;28;20080;-55
2021/11/04 04:48:23;;;;;;;15.18;13.57;;;;;;;27.59;23.41;94524.97;5035313;28;20053;-56
2021/11/04 04:50:50;;;;;;;14.75;13.38;;;;;;;27.72;23.24;94535.31;5035453;28;20052;-56
2021/11/04 04:53:18;;;;;;;13.38;12.18;;;;;;;27.74;23.14;94531.06;5036085;28;20348;-56
2021/11/04 04:55:45;;;;;;;13.77;12.52;;;;;;;27.68;23.42;94542.63;5035378;28;20052;-57
2021/11/04 04:58:12;;;;;;;13.50;12.30;;;;;;;27.73;23.35;94534.16;5033994;28;20056;-53
2021/11/04 05:00:39;;;;;;;14.45;13.05;;;;;;;27.70;23.31;94529.56;5035030;28;20049;-55
2021/11/04 05:03:06;;;;;;;14.50;13.13;;;;;;;27.57;23.38;94529.94;5035493;28;20053;-55
2021/11/04 05:05:33;;;;;;;14.23;12.73;;;;;;;27.47;22.91;94532.69;5035358;28;20519;-53
2021/11/04 05:08:00;;;;;;;13.82;12.43;;;;;;;27.37;22.96;94522.78;5034101;28;20057;-53
2021/11/04 05:10:27;;;;;;;14.82;13.32;;;;;;;27.60;23.21;94518.47;5034868;28;20049;-54
2021/11/04 05:12:54;;;;;;;14.65;13.25;;;;;;;27.41;22.97;94526.19;5034908;28;20052;-53
2021/11/04 05:15:21;;;;;;;15.57;13.88;;;;;;;27.45;23.29;94525.03;5035073;28;20400;-54
2021/11/04 05:17:49;;;;;;;15.20;13.70;;;;;;;27.54;23.42;94524.59;5034655;28;20049;-53
2021/11/04 05:20:16;;;;;;;16.00;14.48;;;;;;;27.78;22.87;94531.03;5035167;28;20056;-60
2021/11/04 05:22:43;;;;;;;15.52;13.48;;;;;;;27.97;23.07;94500.25;5027229;28;20044;-48
2021/11/04 05:25:10;;;;;;;14.35;12.95;;;;;;;28.22;22.29;94512.34;5027590;28;20053;-58
2021/11/04 05:27:38;;;;;;;14.00;12.68;;;;;;;28.43;22.33;94505.31;5033540;28;20051;-46
2021/11/04 05:30:06;;;;;;;17.83;16.02;;;;;;;28.88;21.81;94505.31;5025848;28;20076;-41
2021/11/04 05:32:33;;;;;;;16.90;15.10;;;;;;;30.36;20.20;94510.03;5034246;28;20216;-44
2021/11/04 05:35:00;;;;;;;23.33;14.93;;;;;;;31.75;18.80;94508.34;5029211;28;20436;-46
2021/11/04 05:37:27;;;;;;;18.33;15.15;;;;;;;32.34;17.66;94510.16;5027374;28;20076;-61
2021/11/04 05:39:55;;;;;;;16.50;14.77;;;;;;;33.37;16.73;94528.47;5018084;28;20050;-60
2021/11/04 05:42:22;;;;;;;16.88;15.18;;;;;;;30.59;19.35;94528.16;5014974;28;20038;-65
2021/11/04 05:44:50;;;;;;;18.20;16.23;;;;;;;30.08;20.17;94528.16;5014587;28;20491;-58
2021/11/04 05:47:18;;;;;;;23.23;20.80;;;;;;;29.76;20.45;94530.50;5032002;28;20499;-63
2021/11/04 05:49:45;;;;;;;19.13;17.25;;;;;;;30.15;19.72;94527.28;5034031;28;20049;-57
2021/11/04 05:52:13;;;;;;;19.58;17.58;;;;;;;30.43;19.55;94531.50;5034439;28;20041;-57
2021/11/04 05:54:40;;;;;;;18.20;16.40;;;;;;;29.99;20.04;94546.00;5034324;28;20049;-61
2021/11/04 05:57:07;;;;;;;18.88;17.08;;;;;;;30.73;19.69;94549.56;5031966;28;20048;-47
2021/11/04 05:59:34;;;;;;;21.83;19.52;;;;;;;30.17;20.87;94561.91;5033739;28;20045;-50
2021/11/04 06:02:01;;;;;;;19.25;17.33;;;;;;;28.07;24.04;94575.41;5025317;28;20050;-44
2021/11/04 06:04:34;;;;;;;20.02;18.13;;;;;;;29.19;22.53;94582.28;5014495;28;20057;-46
2021/11/04 06:07:04;;;;;;;18.73;16.90;;;;;;;29.12;22.35;94609.25;5028324;28;20367;-47
2021/11/04 06:09:32;;;;;;;18.75;16.88;;;;;;;29.02;23.08;94610.88;5034194;28;20056;-47
2021/11/04 06:11:59;;;;;;;19.20;17.30;;;;;;;28.56;23.66;94621.97;5034107;28;20452;-47
2021/11/04 06:14:26;;;;;;;17.77;15.95;;;;;;;29.09;23.14;94626.19;5033667;28;20065;-47
2021/11/04 06:16:53;;;;;;;17.50;15.80;;;;;;;28.98;23.29;94628.22;5033404;28;20053;-47
2021/11/04 06:19:20;;;;;;;18.52;16.65;;;;;;;28.81;23.72;94625.25;5034146;28;20060;-47
2021/11/04 06:21:48;;;;;;;17.35;15.65;;;;;;;29.30;23.02;94614.47;5025765;28;20352;-48
2021/11/04 06:24:15;;;;;;;17.73;15.27;;;;;;;28.86;23.53;94613.31;5014260;28;20052;-47
2021/11/04 06:26:43;;;;;;;17.40;15.65;;;;;;;28.86;23.75;94606.00;5024176;28;20371;-48
2021/11/04 06:29:10;;;;;;;17.45;15.65;;;;;;;29.04;23.52;94588.97;5033603;28;20044;-49
2021/11/04 06:31:38;;;;;;;17.58;15.85;;;;;;;29.66;23.00;94593.34;5034051;28;20056;-56
2021/11/04 06:34:05;;;;;;;18.02;16.23;;;;;;;30.16;22.43;94581.97;5033749;28;20052;-62
2021/11/04 06:36:32;;;;;;;16.40;14.73;;;;;;;30.28;22.29;94584.13;5032762;28;20057;-48
2021/11/04 06:39:01;;;;;;;17.13;15.48;;;;;;;30.42;22.37;94583.13;5033576;28;20070;-62
2021/11/04 06:41:28;;;;;;;17.58;15.77;;;;;;;30.85;21.76;94569.78;5034032;28;20041;-47
2021/11/04 06:43:55;;;;;;;23.45;21.45;;;;;;;31.39;21.24;94583.13;5031377;28;20041;-53
2021/11/04 06:46:24;;;;;;;66.93;45.35;;;;;;;31.37;20.98;94582.78;5021745;28;20052;-61
2021/11/04 06:49:05;;;;;;;94.00;49.38;;;;;;;31.90;20.55;94585.22;5033482;28;20384;-59
2021/11/04 06:51:38;;;;;;;69.43;46.20;;;;;;;31.99;20.68;94592.00;5029350;28;20049;-48
2021/11/04 06:54:07;;;;;;;52.13;43.85;;;;;;;32.22;20.92;94605.41;5012909;28;20056;-56
2021/11/04 06:56:43;;;;;;;54.30;44.33;;;;;;;32.22;20.26;94611.59;5022988;28;20116;-50
2021/11/04 06:59:20;;;;;;;58.00;44.55;;;;;;;32.62;19.77;94621.59;5029087;28;20065;-58
2021/11/04 07:01:55;;;;;;;52.75;43.95;;;;;;;32.39;20.02;94631.34;5033582;28;20045;-48
2021/11/04 07:04:33;;;;;;;47.70;42.58;;;;;;;32.21;20.55;94626.28;5033511;28;20048;-48
2021/11/04 07:07:10;;;;;;;48.40;42.83;;;;;;;32.36;20.76;94615.97;5032511;28;20057;-53
2021/11/04 07:09:40;;;;;;;43.83;39.42;;;;;;;32.36;20.23;94620.63;5023641;28;20440;-57
2021/11/04 07:12:09;;;;;;;41.63;37.88;;;;;;;34.49;18.28;94626.00;5032627;28;20045;-60
2021/11/04 07:14:42;;;;;;;110.28;75.28;;;;;;;33.09;19.59;94611.97;5013655;28;20049;-48
2021/11/04 07:17:14;;;;;;;198.65;82.13;;;;;;;34.53;18.33;94612.31;5023418;28;20037;-48
2021/11/04 07:19:42;;;;;;;203.00;80.47;;;;;;;34.29;18.62;94623.47;5018470;28;20120;-47
2021/11/04 07:22:32;;;;;;;222.02;79.30;;;;;;;35.41;17.55;94622.34;5015003;28;20053;-48
2021/11/04 07:25:05;;;;;;;232.93;79.18;;;;;;;35.72;16.87;94618.94;5012653;28;20048;-48
2021/11/04 07:27:39;;;;;;;245.98;77.82;;;;;;;35.96;16.91;94617.34;5031930;28;20045;-48
2021/11/04 07:30:12;;;;;;;253.25;80.32;;;;;;;35.66;16.95;94637.03;5035693;28;20056;-47
2021/11/04 07:33:03;;;;;;;73.45;66.75;;;;;;;35.66;16.97;94631.59;5036875;28;20087;-47
2021/11/04 07:35:36;;;;;;;46.45;42.13;;;;;;;36.47;16.15;94617.03;5036771;28;20375;-50
2021/11/04 07:38:07;;;;;;;14.65;13.20;;;;;;;36.96;15.43;94619.03;5036383;28;20057;-49
2021/11/04 07:40:34;;;;;;;14.40;12.90;;;;;;;36.59;16.03;94607.97;5035219;28;20045;-48
2021/11/04 07:43:01;;;;;;;15.48;13.88;;;;;;;36.03;16.72;94616.31;5036831;28;20251;-49
2021/11/04 07:45:30;;;;;;;15.95;13.60;;;;;;;36.03;16.58;94614.34;5036887;28;20355;-47
2021/11/04 07:47:58;;;;;;;15.27;13.73;;;;;;;35.63;16.91;94616.16;5036428;28;20041;-50
2021/11/04 07:50:27;;;;;;;16.95;15.32;;;;;;;35.65;16.65;94617.22;5034872;28;20475;-54
2021/11/04 07:52:54;;;;;;;16.45;14.77;;;;;;;35.81;16.69;94622.47;5036590;28;20045;-47
2021/11/04 07:55:21;;;;;;;19.42;17.52;;;;;;;35.48;17.21;94626.78;5036755;28;20052;-48
2021/11/04 07:57:49;;;;;;;22.08;19.90;;;;;;;35.69;16.57;94636.91;5036440;28;20045;-51
2021/11/04 08:00:18;;;;;;;21.63;19.42;;;;;;;35.68;16.77;94635.41;5036351;28;20049;-50
2021/11/04 08:02:45;;;;;;;20.40;18.50;;;;;;;35.52;17.42;94627.41;5036708;28;20060;-63
2021/11/04 08:05:15;;;;;;;19.90;18.00;;;;;;;35.47;16.98;94647.75;5036969;28;20045;-61
2021/11/04 08:07:42;;;;;;;18.42;16.63;;;;;;;35.37;17.07;94638.00;5035713;28;20368;-64
2021/11/04 08:10:11;;;;;;;15.65;14.15;;;;;;;35.28;17.03;94632.44;5036293;28;20041;-64
2021/11/04 08:12:39;;;;;;;16.63;14.43;;;;;;;35.42;17.11;94647.56;5036544;28;20046;-65
2021/11/04 08:15:08;;;;;;;16.10;14.50;;;;;;;35.89;16.34;94630.41;5036614;28;20045;-61
2021/11/04 08:17:36;;;;;;;16.75;14.95;;;;;;;35.67;16.68;94633.13;5035814;28;20379;-55
2021/11/04 08:20:05;;;;;;;17.08;15.20;;;;;;;35.54;16.91;94636.63;5036398;28;20052;-62
2021/11/04 08:22:32;;;;;;;16.75;14.98;;;;;;;35.60;16.67;94627.91;5036389;28;20103;-54
2021/11/04 08:25:00;;;;;;;17.15;15.38;;;;;;;35.58;16.71;94627.59;5036120;28;20379;-53
2021/11/04 08:27:27;;;;;;;16.60;14.90;;;;;;;35.64;16.51;94629.28;5035685;28;20483;-55
2021/11/04 08:29:54;;;;;;;16.58;14.88;;;;;;;35.23;16.84;94633.00;5034467;28;20046;-59
2021/11/04 08:32:21;;;;;;;18.05;14.55;;;;;;;35.38;17.00;94634.06;5035896;28;20076;-57
2021/11/04 08:34:48;;;;;;;17.17;14.65;;;;;;;35.84;16.51;94620.88;5035672;28;20080;-63
2021/11/04 08:37:16;;;;;;;16.50;14.82;;;;;;;35.97;16.41;94629.72;5034560;28;20065;-64
2021/11/04 08:39:43;;;;;;;16.67;14.77;;;;;;;36.12;16.46;94619.81;5035445;28;20053;-57
2021/11/04 08:42:12;;;;;;;17.52;15.77;;;;;;;36.02;16.75;94621.00;5035998;28;20056;-47
2021/11/04 08:44:39;;;;;;;15.73;14.13;;;;;;;36.18;16.62;94622.75;5023466;28;20054;-47
2021/11/04 08:47:08;;;;;;;16.30;14.73;;;;;;;36.14;16.62;94633.75;5026014;28;20048;-50
2021/11/04 08:49:35;;;;;;;15.98;14.38;;;;;;;36.11;16.14;94623.75;5035448;28;20051;-48
2021/11/04 08:52:03;;;;;;;17.17;15.48;;;;;;;35.76;16.56;94608.72;5035568;28;20049;-49
2021/11/04 08:54:30;;;;;;;16.58;15.02;;;;;;;35.63;17.07;94616.16;5034538;28;20359;-49
2021/11/04 08:56:57;;;;;;;18.33;16.25;;;;;;;35.81;16.78;94606.16;5035173;28;20045;-48
2021/11/04 08:59:24;;;;;;;16.75;14.93;;;;;;;35.59;16.77;94604.66;5022530;28;20484;-49
2021/11/04 09:01:51;;;;;;;16.10;14.60;;;;;;;35.79;16.82;94607.81;5034681;28;20045;-48
2021/11/04 09:04:18;;;;;;;15.60;14.10;;;;;;;36.48;16.11;94613.09;5035677;28;20053;-47
2021/11/04 09:06:48;;;;;;;16.05;14.43;;;;;;;36.45;15.83;94589.50;5034290;28;20062;-48
2021/11/04 09:09:16;;;;;;;16.85;15.10;;;;;;;35.90;16.28;94597.31;5035195;28;20057;-48
2021/11/04 09:11:43;;;;;;;15.57;13.98;;;;;;;35.45;16.86;94598.53;5035141;28;20475;-50
2021/11/04 09:14:10;;;;;;;16.85;14.15;;;;;;;35.66;17.07;94599.72;5035162;28;20050;-48
2021/11/04 09:16:38;;;;;;;14.80;12.85;;;;;;;35.72;16.76;94597.19;5034609;28;20049;-48
2021/11/04 09:19:05;;;;;;;15.70;13.57;;;;;;;35.60;16.94;94603.44;5033920;28;20053;-48
2021/11/04 09:21:32;;;;;;;14.60;13.00;;;;;;;35.95;16.76;94598.75;5034805;28;20049;-48
2021/11/04 09:24:00;;;;;;;13.80;11.13;;;;;;;36.11;16.44;94602.00;5034930;28;20056;-47
2021/11/04 09:26:27;;;;;;;12.48;10.82;;;;;;;36.08;16.18;94607.56;5034565;28;20045;-48
2021/11/04 09:28:54;;;;;;;12.35;10.70;;;;;;;36.96;15.98;94602.69;5033721;28;20049;-49
2021/11/04 09:31:21;;;;;;;11.85;10.55;;;;;;;36.68;16.08;94610.72;5018678;28;20057;-48
2021/11/04 09:33:48;;;;;;;12.27;10.88;;;;;;;36.46;16.26;94607.34;5014837;28;20117;-47
2021/11/04 09:36:15;;;;;;;12.35;11.05;;;;;;;36.31;16.47;94609.06;5016611;28;20061;-48
2021/11/04 09:38:42;;;;;;;12.07;10.70;;;;;;;36.19;16.26;94607.19;5033738;28;20053;-48
2021/11/04 09:41:11;;;;;;;11.85;10.65;;;;;;;35.97;16.52;94618.84;5033079;28;20049;-47
2021/11/04 09:43:38;;;;;;;11.43;10.25;;;;;;;36.31;16.23;94617.25;5014559;28;20041;-48
2021/11/04 09:46:05;;;;;;;12.00;9.80;;;;;;;36.48;15.97;94607.66;5014085;28;20046;-48
2021/11/04 09:48:37;;;;;;;13.05;10.05;;;;;;;36.11;16.21;94607.44;5034093;28;20052;-50
2021/11/04 09:51:05;;;;;;;12.13;10.90;;;;;;;37.05;15.71;94589.06;5024361;28;20530;-49
2021/11/04 09:53:32;;;;;;;13.20;10.45;;;;;;;37.19;15.17;94596.63;5014734;28;20384;-50
2021/11/04 09:56:01;;;;;;;12.18;10.32;;;;;;;36.90;15.62;94599.00;5014575;28;20049;-49
2021/11/04 09:58:30;;;;;;;16.13;10.25;;;;;;;36.87;15.52;94591.75;5033686;28;20053;-48
2021/11/04 10:01:18;;;;;;;13.02;10.30;;;;;;;36.31;16.33;94604.38;5029687;28;20487;-47
2021/11/04 10:03:46;;;;;;;11.07;9.73;;;;;;;36.28;16.52;94582.72;5014466;28;20441;-49
2021/11/04 10:06:28;;;;;;;11.60;9.73;;;;;;;36.60;16.17;94576.81;5014768;28;20365;-48
2021/11/04 10:08:58;;;;;;;12.43;10.18;;;;;;;36.18;15.89;94567.56;5016921;28;20081;-49
2021/11/04 10:11:30;;;;;;;14.15;10.90;;;;;;;36.43;16.09;94570.88;5034206;28;20053;-48
2021/11/04 10:14:02;;;;;;;13.52;10.57;;;;;;;36.11;15.91;94557.69;5034111;28;20041;-49
2021/11/04 10:16:31;;;;;;;13.05;10.18;;;;;;;36.60;15.64;94565.94;5033664;28;20048;-48
2021/11/04 10:19:03;;;;;;;11.70;10.32;;;;;;;36.63;15.80;94548.69;5033786;28;20045;-49
2021/11/04 10:21:32;;;;;;;12.60;9.65;;;;;;;36.59;15.63;94553.53;5033992;28;20045;-50
2021/11/04 10:23:59;;;;;;;13.70;9.00;;;;;;;36.39;16.27;94545.75;5034000;28;20041;-52
2021/11/04 10:26:29;;;;;;;11.77;9.27;;;;;;;36.31;15.67;94539.06;5033690;28;20053;-47
2021/11/04 10:29:05;;;;;;;11.13;8.70;;;;;;;36.41;15.77;94531.69;5033690;28;20057;-47
2021/11/04 10:31:44;;;;;;;11.60;8.55;;;;;;;36.44;15.36;94536.25;5033876;28;20048;-48
2021/11/04 10:34:32;;;;;;;9.50;7.97;;;;;;;36.54;15.35;94524.19;5033971;28;20056;-49
2021/11/04 10:37:19;;;;;;;9.55;8.00;;;;;;;36.34;15.89;94527.28;5032855;28;20448;-49
2021/11/04 10:39:51;;;;;;;11.15;8.38;;;;;;;36.43;16.18;94529.28;5033798;28;20064;-54
2021/11/04 10:42:18;;;;;;;12.00;9.02;;;;;;;36.33;15.67;94522.31;5033758;28;20447;-64
2021/11/04 10:44:45;;;;;;;11.60;8.45;;;;;;;36.78;15.76;94527.13;5033632;28;20124;-49
2021/11/04 10:47:18;;;;;;;11.73;7.93;;;;;;;36.56;15.76;94521.00;5033221;28;20371;-49
2021/11/04 10:49:48;;;;;;;9.43;6.60;;;;;;;36.68;15.50;94523.59;5032312;28;20045;-49
2021/11/04 10:52:22;;;;;;;8.00;7.10;;;;;;;36.50;15.78;94518.13;5033827;28;20056;-58
2021/11/04 10:54:51;;;;;;;10.45;7.45;;;;;;;36.84;15.85;94519.13;5033502;28;20049;-49
2021/11/04 10:57:38;;;;;;;7.30;6.22;;;;;;;36.57;15.74;94517.06;5032726;28;20052;-50
2021/11/04 11:00:19;;;;;;;8.40;6.80;;;;;;;36.56;15.38;94518.28;5028955;28;20045;-47
2021/11/04 11:03:13;;;;;;;10.82;7.00;;;;;;;35.97;16.24;94509.28;5017786;28;20045;-60
2021/11/04 11:05:43;;;;;;;9.10;7.10;;;;;;;36.39;15.66;94496.00;5014355;28;20053;-63
2021/11/04 11:08:14;;;;;;;8.50;6.53;;;;;;;36.40;15.72;94508.41;5031647;28;20045;-57
2021/11/04 11:10:42;;;;;;;7.55;6.75;;;;;;;36.00;16.15;94503.72;5036565;28;20053;-60
2021/11/04 11:13:10;;;;;;;7.70;6.00;;;;;;;35.80;16.44;94495.88;5037332;28;20355;-48
2021/11/04 11:15:45;;;;;;;10.52;6.78;;;;;;;35.94;16.47;94494.63;5037454;28;20056;-48
2021/11/04 11:18:12;;;;;;;9.73;6.07;;;;;;;36.19;16.43;94485.50;5037322;28;20057;-49
2021/11/04 11:20:44;;;;;;;7.45;6.28;;;;;;;35.77;16.64;94485.16;5037109;28;20045;-50
2021/11/04 11:23:14;;;;;;;7.28;6.30;;;;;;;35.77;16.45;94485.16;5036987;28;20048;-49
2021/11/04 11:25:41;;;;;;;10.43;6.78;;;;;;;35.60;16.89;94486.56;5037172;28;20364;-54
2021/11/04 11:28:09;;;;;;;7.88;6.78;;;;;;;35.71;16.61;94481.50;5035816;28;20052;-55